Startpagina
METAR-TAF:

METAR-TAF

Vliegvelden :

Aeropuerto de Palma de Mallorca

Palma de Mallorca, Spanje

breedte: 39-33N, lengte: 002-44E, hoogte: 4 m

Actueel weer

Dit bericht is 19 minuten geleden gemaakt, om 00:30 UTC
Weinig wind
Temperatuur 10°C
Vochtigheid 93%
Druk 1015 hPa
Zicht 10 km of meer
Verspreide wolken op 1300 ft

METAR: LEPA 150030Z 00000KT 9999 SCT013 10/09 Q1015 NOSIG

Tijdstip: 01:49 (00:49 UTC)

Verwachting

Dit bericht is 1 uur en het 49 minuten geleden gemaakt, om 23:00 UTC
Verwachting geldig van 15 om 00 UTC tot 15 om 24 UTC
Wind 4 kt uit variabele richting
Zicht 10 km of meer
Weinig wolken op 3000 ft
Kans 30% :
Tijdelijke
van 15 om 00 UTC tot 15 om 08 UTC
Zicht: 4000 m
Gebroken wolken op 1400 ft
nevel
Wijzigt naar
van 15 om 11 UTC tot 15 om 13 UTC
Wind 10 kt uit het zuidzuidwesten

TAF: LEPA 142300Z 1500/1524 VRB04KT 9999 FEW030 TX17/1513Z TN09/1506Z PROB30 TEMPO 1500/1508 4000 BR BKN014 BECMG 1511/1513 21010KT

Waarnemingen en weersverwachtingen van meer dan 4000 vliegvelden (METAR en TAF).

De beschikbare stations zijn de gele en rode punten op de kaart.

Ga met uw muis naar het station om de naam te zien.

Klik dan om waarnemingen en weersverwachtingen te zien.

kaart wijzigen: klik op de groene knoppen met een zwart kruis om in te zoomen, op de groene knop met een streepje om uit te zoomen of op de groene pijlen voor aangrenzende kaarten.


METAR-TAF: